sensor_id;sensor_type;location;lat;lon;timestamp;P1;durP1;ratioP1;P2;durP2;ratioP2
58208;SDS011;44006;52.028;4.696;2022-12-29T00:00:47;6.23;;;4.07;;
58208;SDS011;44006;52.028;4.696;2022-12-29T00:03:12;7.23;;;3.70;;
58208;SDS011;44006;52.028;4.696;2022-12-29T00:05:38;6.97;;;3.57;;
58208;SDS011;44006;52.028;4.696;2022-12-29T00:08:03;5.10;;;3.13;;
58208;SDS011;44006;52.028;4.696;2022-12-29T00:10:28;5.60;;;3.17;;
58208;SDS011;44006;52.028;4.696;2022-12-29T00:12:53;4.60;;;3.20;;
58208;SDS011;44006;52.028;4.696;2022-12-29T00:15:37;6.32;;;3.30;;
58208;SDS011;44006;52.028;4.696;2022-12-29T00:18:02;5.22;;;3.22;;
58208;SDS011;44006;52.028;4.696;2022-12-29T00:20:27;5.93;;;3.22;;
58208;SDS011;44006;52.028;4.696;2022-12-29T00:23:12;5.80;;;3.30;;
58208;SDS011;44006;52.028;4.696;2022-12-29T00:25:56;8.98;;;3.55;;
58208;SDS011;44006;52.028;4.696;2022-12-29T00:28:40;5.38;;;3.22;;
58208;SDS011;44006;52.028;4.696;2022-12-29T00:31:24;12.27;;;3.60;;
58208;SDS011;44006;52.028;4.696;2022-12-29T00:34:10;8.25;;;3.70;;
58208;SDS011;44006;52.028;4.696;2022-12-29T00:36:54;6.13;;;4.03;;
58208;SDS011;44006;52.028;4.696;2022-12-29T00:39:20;4.90;;;3.38;;
58208;SDS011;44006;52.028;4.696;2022-12-29T00:42:04;6.22;;;3.25;;
58208;SDS011;44006;52.028;4.696;2022-12-29T00:44:48;6.85;;;3.72;;
58208;SDS011;44006;52.028;4.696;2022-12-29T00:47:13;5.30;;;3.10;;
58208;SDS011;44006;52.028;4.696;2022-12-29T00:49:38;6.68;;;3.20;;
58208;SDS011;44006;52.028;4.696;2022-12-29T00:52:07;6.43;;;3.22;;
58208;SDS011;44006;52.028;4.696;2022-12-29T00:54:34;6.15;;;3.30;;
58208;SDS011;44006;52.028;4.696;2022-12-29T00:57:00;9.57;;;3.88;;
58208;SDS011;44006;52.028;4.696;2022-12-29T00:59:26;7.78;;;3.40;;
58208;SDS011;44006;52.028;4.696;2022-12-29T01:01:52;6.53;;;3.60;;
58208;SDS011;44006;52.028;4.696;2022-12-29T01:04:18;6.53;;;3.30;;
58208;SDS011;44006;52.028;4.696;2022-12-29T01:06:44;4.97;;;3.10;;
58208;SDS011;44006;52.028;4.696;2022-12-29T01:09:10;6.70;;;3.25;;
58208;SDS011;44006;52.028;4.696;2022-12-29T01:11:55;5.60;;;3.00;;
58208;SDS011;44006;52.028;4.696;2022-12-29T01:14:20;5.80;;;2.88;;
58208;SDS011;44006;52.028;4.696;2022-12-29T01:16:46;6.07;;;3.08;;
58208;SDS011;44006;52.028;4.696;2022-12-29T01:19:11;4.28;;;3.33;;
58208;SDS011;44006;52.028;4.696;2022-12-29T01:21:37;6.15;;;3.50;;
58208;SDS011;44006;52.028;4.696;2022-12-29T01:24:02;6.00;;;3.80;;
58208;SDS011;44006;52.028;4.696;2022-12-29T01:26:27;4.88;;;3.50;;
58208;SDS011;44006;52.028;4.696;2022-12-29T01:28:52;6.03;;;3.28;;
58208;SDS011;44006;52.028;4.696;2022-12-29T01:31:18;6.15;;;3.78;;
58208;SDS011;44006;52.028;4.696;2022-12-29T01:33:43;9.52;;;4.10;;
58208;SDS011;44006;52.028;4.696;2022-12-29T01:36:13;7.05;;;3.60;;
58208;SDS011;44006;52.028;4.696;2022-12-29T01:38:39;4.70;;;3.63;;
58208;SDS011;44006;52.028;4.696;2022-12-29T01:41:05;5.93;;;3.50;;
58208;SDS011;44006;52.028;4.696;2022-12-29T01:46:18;10.82;;;3.60;;
58208;SDS011;44006;52.028;4.696;2022-12-29T01:48:47;6.68;;;4.18;;
58208;SDS011;44006;52.028;4.696;2022-12-29T01:51:13;5.05;;;3.88;;
58208;SDS011;44006;52.028;4.696;2022-12-29T01:53:39;6.13;;;3.97;;
58208;SDS011;44006;52.028;4.696;2022-12-29T01:56:05;8.05;;;3.92;;
58208;SDS011;44006;52.028;4.696;2022-12-29T01:58:32;7.60;;;3.63;;
58208;SDS011;44006;52.028;4.696;2022-12-29T02:00:58;7.35;;;3.53;;
58208;SDS011;44006;52.028;4.696;2022-12-29T02:03:24;8.55;;;3.10;;
58208;SDS011;44006;52.028;4.696;2022-12-29T02:05:52;11.88;;;2.97;;
58208;SDS011;44006;52.028;4.696;2022-12-29T02:08:20;7.80;;;2.20;;
58208;SDS011;44006;52.028;4.696;2022-12-29T02:10:47;4.30;;;1.95;;
58208;SDS011;44006;52.028;4.696;2022-12-29T02:13:14;6.80;;;2.08;;
58208;SDS011;44006;52.028;4.696;2022-12-29T02:36:01;10.50;;;2.67;;
58208;SDS011;44006;52.028;4.696;2022-12-29T02:38:54;8.73;;;2.45;;
58208;SDS011;44006;52.028;4.696;2022-12-29T02:43:58;6.13;;;1.50;;
58208;SDS011;44006;52.028;4.696;2022-12-29T02:46:37;7.75;;;1.80;;
58208;SDS011;44006;52.028;4.696;2022-12-29T02:49:18;7.43;;;2.08;;
58208;SDS011;44006;52.028;4.696;2022-12-29T02:51:52;9.68;;;2.00;;
58208;SDS011;44006;52.028;4.696;2022-12-29T02:54:20;8.82;;;1.83;;
58208;SDS011;44006;52.028;4.696;2022-12-29T02:57:08;13.48;;;2.30;;
58208;SDS011;44006;52.028;4.696;2022-12-29T02:59:33;10.52;;;2.30;;
58208;SDS011;44006;52.028;4.696;2022-12-29T03:02:07;10.60;;;2.25;;
58208;SDS011;44006;52.028;4.696;2022-12-29T03:07:17;14.45;;;2.83;;
58208;SDS011;44006;52.028;4.696;2022-12-29T03:12:33;14.07;;;2.40;;
58208;SDS011;44006;52.028;4.696;2022-12-29T03:15:23;11.43;;;2.45;;
58208;SDS011;44006;52.028;4.696;2022-12-29T03:18:21;12.07;;;2.25;;
58208;SDS011;44006;52.028;4.696;2022-12-29T03:20:52;13.60;;;1.90;;
58208;SDS011;44006;52.028;4.696;2022-12-29T03:23:19;9.88;;;2.08;;
58208;SDS011;44006;52.028;4.696;2022-12-29T03:25:47;13.55;;;2.08;;
58208;SDS011;44006;52.028;4.696;2022-12-29T03:28:18;13.88;;;1.75;;
58208;SDS011;44006;52.028;4.696;2022-12-29T03:30:45;9.50;;;2.20;;
58208;SDS011;44006;52.028;4.696;2022-12-29T03:33:12;12.13;;;1.77;;
58208;SDS011;44006;52.028;4.696;2022-12-29T03:35:38;12.73;;;2.08;;
58208;SDS011;44006;52.028;4.696;2022-12-29T03:40:30;13.07;;;1.80;;
58208;SDS011;44006;52.028;4.696;2022-12-29T03:42:56;10.32;;;1.83;;
58208;SDS011;44006;52.028;4.696;2022-12-29T03:45:22;9.48;;;1.70;;
58208;SDS011;44006;52.028;4.696;2022-12-29T03:47:47;10.48;;;2.05;;
58208;SDS011;44006;52.028;4.696;2022-12-29T03:50:13;8.30;;;1.40;;
58208;SDS011;44006;52.028;4.696;2022-12-29T03:52:38;6.47;;;1.58;;
58208;SDS011;44006;52.028;4.696;2022-12-29T03:55:03;9.38;;;1.85;;
58208;SDS011;44006;52.028;4.696;2022-12-29T03:57:29;8.25;;;1.50;;
58208;SDS011;44006;52.028;4.696;2022-12-29T03:59:54;10.03;;;2.03;;
58208;SDS011;44006;52.028;4.696;2022-12-29T04:02:19;12.77;;;1.77;;
58208;SDS011;44006;52.028;4.696;2022-12-29T04:04:44;11.57;;;2.10;;
58208;SDS011;44006;52.028;4.696;2022-12-29T04:07:11;10.77;;;1.90;;
58208;SDS011;44006;52.028;4.696;2022-12-29T04:09:36;14.40;;;2.35;;
58208;SDS011;44006;52.028;4.696;2022-12-29T04:12:01;12.53;;;2.20;;
58208;SDS011;44006;52.028;4.696;2022-12-29T04:14:26;8.13;;;1.55;;
58208;SDS011;44006;52.028;4.696;2022-12-29T04:16:51;8.20;;;1.47;;
58208;SDS011;44006;52.028;4.696;2022-12-29T04:19:17;12.73;;;2.10;;
58208;SDS011;44006;52.028;4.696;2022-12-29T04:21:42;17.80;;;2.13;;
58208;SDS011;44006;52.028;4.696;2022-12-29T04:24:07;13.57;;;2.22;;
58208;SDS011;44006;52.028;4.696;2022-12-29T04:26:33;10.48;;;2.20;;
58208;SDS011;44006;52.028;4.696;2022-12-29T04:28:59;14.43;;;2.53;;
58208;SDS011;44006;52.028;4.696;2022-12-29T04:31:24;12.70;;;2.75;;
58208;SDS011;44006;52.028;4.696;2022-12-29T04:33:49;19.13;;;2.65;;
58208;SDS011;44006;52.028;4.696;2022-12-29T04:36:14;14.80;;;2.67;;
58208;SDS011;44006;52.028;4.696;2022-12-29T04:38:40;16.60;;;2.50;;
58208;SDS011;44006;52.028;4.696;2022-12-29T04:41:05;12.93;;;2.78;;
58208;SDS011;44006;52.028;4.696;2022-12-29T04:43:30;12.38;;;2.05;;
58208;SDS011;44006;52.028;4.696;2022-12-29T04:45:55;12.25;;;2.45;;
58208;SDS011;44006;52.028;4.696;2022-12-29T04:48:21;15.82;;;2.30;;
58208;SDS011;44006;52.028;4.696;2022-12-29T04:50:47;10.40;;;2.60;;
58208;SDS011;44006;52.028;4.696;2022-12-29T04:53:12;16.38;;;3.20;;
58208;SDS011;44006;52.028;4.696;2022-12-29T04:55:38;19.65;;;3.35;;
58208;SDS011;44006;52.028;4.696;2022-12-29T04:58:03;14.65;;;2.88;;
58208;SDS011;44006;52.028;4.696;2022-12-29T05:00:28;17.35;;;3.60;;
58208;SDS011;44006;52.028;4.696;2022-12-29T05:02:53;13.15;;;2.78;;
58208;SDS011;44006;52.028;4.696;2022-12-29T05:05:19;17.80;;;3.38;;
58208;SDS011;44006;52.028;4.696;2022-12-29T05:07:44;14.23;;;2.30;;
58208;SDS011;44006;52.028;4.696;2022-12-29T05:10:09;16.50;;;3.05;;
58208;SDS011;44006;52.028;4.696;2022-12-29T05:12:35;16.42;;;3.00;;
58208;SDS011;44006;52.028;4.696;2022-12-29T05:15:00;23.70;;;3.20;;
58208;SDS011;44006;52.028;4.696;2022-12-29T05:17:27;16.58;;;2.55;;
58208;SDS011;44006;52.028;4.696;2022-12-29T05:19:53;14.35;;;2.15;;
58208;SDS011;44006;52.028;4.696;2022-12-29T05:22:18;23.02;;;2.90;;
58208;SDS011;44006;52.028;4.696;2022-12-29T05:24:43;19.93;;;3.00;;
58208;SDS011;44006;52.028;4.696;2022-12-29T05:27:08;21.40;;;2.63;;
58208;SDS011;44006;52.028;4.696;2022-12-29T05:29:34;23.02;;;2.72;;
58208;SDS011;44006;52.028;4.696;2022-12-29T05:31:59;12.30;;;2.58;;
58208;SDS011;44006;52.028;4.696;2022-12-29T05:34:24;17.25;;;2.67;;
58208;SDS011;44006;52.028;4.696;2022-12-29T05:36:49;19.20;;;2.83;;
58208;SDS011;44006;52.028;4.696;2022-12-29T05:39:15;16.60;;;2.92;;
58208;SDS011;44006;52.028;4.696;2022-12-29T05:41:40;19.58;;;2.90;;
58208;SDS011;44006;52.028;4.696;2022-12-29T05:44:05;28.50;;;3.58;;
58208;SDS011;44006;52.028;4.696;2022-12-29T05:46:30;19.52;;;2.55;;
58208;SDS011;44006;52.028;4.696;2022-12-29T05:48:56;20.92;;;3.10;;
58208;SDS011;44006;52.028;4.696;2022-12-29T05:51:21;25.63;;;3.47;;
58208;SDS011;44006;52.028;4.696;2022-12-29T05:53:46;18.65;;;2.78;;
58208;SDS011;44006;52.028;4.696;2022-12-29T05:56:11;21.63;;;2.97;;
58208;SDS011;44006;52.028;4.696;2022-12-29T05:58:36;24.38;;;3.08;;
58208;SDS011;44006;52.028;4.696;2022-12-29T06:01:02;25.27;;;3.25;;
58208;SDS011;44006;52.028;4.696;2022-12-29T06:03:27;26.30;;;3.92;;
58208;SDS011;44006;52.028;4.696;2022-12-29T06:05:52;18.80;;;2.80;;
58208;SDS011;44006;52.028;4.696;2022-12-29T06:08:17;22.23;;;3.30;;
58208;SDS011;44006;52.028;4.696;2022-12-29T06:10:43;27.10;;;3.42;;
58208;SDS011;44006;52.028;4.696;2022-12-29T06:13:08;13.32;;;2.50;;
58208;SDS011;44006;52.028;4.696;2022-12-29T06:15:34;22.70;;;3.35;;
58208;SDS011;44006;52.028;4.696;2022-12-29T06:18:00;21.85;;;3.92;;
58208;SDS011;44006;52.028;4.696;2022-12-29T06:20:25;26.38;;;3.38;;
58208;SDS011;44006;52.028;4.696;2022-12-29T06:22:50;20.17;;;3.22;;
58208;SDS011;44006;52.028;4.696;2022-12-29T06:25:16;27.90;;;3.58;;
58208;SDS011;44006;52.028;4.696;2022-12-29T06:27:41;26.52;;;3.25;;
58208;SDS011;44006;52.028;4.696;2022-12-29T06:30:06;24.23;;;3.58;;
58208;SDS011;44006;52.028;4.696;2022-12-29T06:32:32;21.15;;;3.03;;
58208;SDS011;44006;52.028;4.696;2022-12-29T06:34:57;20.27;;;2.92;;
58208;SDS011;44006;52.028;4.696;2022-12-29T06:37:22;25.30;;;3.42;;
58208;SDS011;44006;52.028;4.696;2022-12-29T06:39:47;23.83;;;2.90;;
58208;SDS011;44006;52.028;4.696;2022-12-29T06:42:12;32.00;;;3.87;;
58208;SDS011;44006;52.028;4.696;2022-12-29T06:44:38;29.77;;;3.03;;
58208;SDS011;44006;52.028;4.696;2022-12-29T06:47:03;25.15;;;3.38;;
58208;SDS011;44006;52.028;4.696;2022-12-29T06:49:28;19.17;;;3.03;;
58208;SDS011;44006;52.028;4.696;2022-12-29T06:51:53;21.70;;;2.77;;
58208;SDS011;44006;52.028;4.696;2022-12-29T06:54:18;19.47;;;2.67;;
58208;SDS011;44006;52.028;4.696;2022-12-29T06:56:44;17.02;;;2.20;;
58208;SDS011;44006;52.028;4.696;2022-12-29T06:59:09;18.25;;;3.08;;
58208;SDS011;44006;52.028;4.696;2022-12-29T07:01:34;26.83;;;2.80;;
58208;SDS011;44006;52.028;4.696;2022-12-29T07:04:00;11.95;;;2.35;;
58208;SDS011;44006;52.028;4.696;2022-12-29T07:06:26;15.10;;;2.20;;
58208;SDS011;44006;52.028;4.696;2022-12-29T07:08:51;16.13;;;2.45;;
58208;SDS011;44006;52.028;4.696;2022-12-29T07:11:19;12.68;;;1.83;;
58208;SDS011;44006;52.028;4.696;2022-12-29T07:13:45;15.05;;;2.80;;
58208;SDS011;44006;52.028;4.696;2022-12-29T07:16:10;16.40;;;3.00;;
58208;SDS011;44006;52.028;4.696;2022-12-29T07:18:35;12.45;;;2.92;;
58208;SDS011;44006;52.028;4.696;2022-12-29T07:21:01;15.60;;;3.22;;
58208;SDS011;44006;52.028;4.696;2022-12-29T07:23:26;19.60;;;3.17;;
58208;SDS011;44006;52.028;4.696;2022-12-29T07:28:26;20.00;;;2.97;;
58208;SDS011;44006;52.028;4.696;2022-12-29T07:30:51;13.23;;;2.75;;
58208;SDS011;44006;52.028;4.696;2022-12-29T07:33:16;17.03;;;3.03;;
58208;SDS011;44006;52.028;4.696;2022-12-29T07:35:41;16.47;;;2.70;;
58208;SDS011;44006;52.028;4.696;2022-12-29T07:38:06;22.67;;;3.27;;
58208;SDS011;44006;52.028;4.696;2022-12-29T07:40:32;17.20;;;2.88;;
58208;SDS011;44006;52.028;4.696;2022-12-29T07:42:57;16.57;;;3.10;;
58208;SDS011;44006;52.028;4.696;2022-12-29T07:45:22;18.17;;;2.80;;
58208;SDS011;44006;52.028;4.696;2022-12-29T07:47:48;18.27;;;2.67;;
58208;SDS011;44006;52.028;4.696;2022-12-29T07:50:14;21.67;;;2.60;;
58208;SDS011;44006;52.028;4.696;2022-12-29T07:52:39;26.63;;;3.08;;
58208;SDS011;44006;52.028;4.696;2022-12-29T07:55:04;21.50;;;2.57;;
58208;SDS011;44006;52.028;4.696;2022-12-29T07:57:29;20.15;;;3.45;;
58208;SDS011;44006;52.028;4.696;2022-12-29T07:59:55;22.30;;;3.20;;
58208;SDS011;44006;52.028;4.696;2022-12-29T08:02:20;21.43;;;3.50;;
58208;SDS011;44006;52.028;4.696;2022-12-29T08:04:46;20.35;;;3.60;;
58208;SDS011;44006;52.028;4.696;2022-12-29T08:07:11;18.08;;;2.97;;
58208;SDS011;44006;52.028;4.696;2022-12-29T08:09:37;17.80;;;3.13;;
58208;SDS011;44006;52.028;4.696;2022-12-29T08:12:02;25.10;;;3.17;;
58208;SDS011;44006;52.028;4.696;2022-12-29T08:14:27;18.00;;;2.85;;
58208;SDS011;44006;52.028;4.696;2022-12-29T08:16:52;19.42;;;3.50;;
58208;SDS011;44006;52.028;4.696;2022-12-29T08:19:17;19.67;;;3.08;;
58208;SDS011;44006;52.028;4.696;2022-12-29T08:21:43;23.87;;;3.67;;
58208;SDS011;44006;52.028;4.696;2022-12-29T08:24:08;16.25;;;2.72;;
58208;SDS011;44006;52.028;4.696;2022-12-29T08:26:33;25.55;;;3.30;;
58208;SDS011;44006;52.028;4.696;2022-12-29T08:28:58;16.98;;;2.63;;
58208;SDS011;44006;52.028;4.696;2022-12-29T08:31:24;27.75;;;3.38;;
58208;SDS011;44006;52.028;4.696;2022-12-29T08:33:49;22.98;;;3.35;;
58208;SDS011;44006;52.028;4.696;2022-12-29T08:36:14;25.85;;;3.35;;
58208;SDS011;44006;52.028;4.696;2022-12-29T08:38:39;21.17;;;3.40;;
58208;SDS011;44006;52.028;4.696;2022-12-29T08:41:05;16.67;;;2.80;;
58208;SDS011;44006;52.028;4.696;2022-12-29T08:43:31;30.60;;;8.00;;
58208;SDS011;44006;52.028;4.696;2022-12-29T08:45:59;22.17;;;3.22;;
58208;SDS011;44006;52.028;4.696;2022-12-29T08:48:25;22.63;;;2.75;;
58208;SDS011;44006;52.028;4.696;2022-12-29T08:50:50;26.85;;;3.50;;
58208;SDS011;44006;52.028;4.696;2022-12-29T08:53:15;19.95;;;2.90;;
58208;SDS011;44006;52.028;4.696;2022-12-29T08:55:41;18.90;;;3.50;;
58208;SDS011;44006;52.028;4.696;2022-12-29T08:58:06;19.53;;;3.47;;
58208;SDS011;44006;52.028;4.696;2022-12-29T09:00:31;22.58;;;3.33;;
58208;SDS011;44006;52.028;4.696;2022-12-29T09:02:56;23.52;;;3.60;;
58208;SDS011;44006;52.028;4.696;2022-12-29T09:05:22;17.95;;;2.88;;
58208;SDS011;44006;52.028;4.696;2022-12-29T09:07:47;21.15;;;3.42;;
58208;SDS011;44006;52.028;4.696;2022-12-29T09:10:12;19.42;;;3.08;;
58208;SDS011;44006;52.028;4.696;2022-12-29T09:12:37;18.42;;;3.03;;
58208;SDS011;44006;52.028;4.696;2022-12-29T09:15:03;21.60;;;3.37;;
58208;SDS011;44006;52.028;4.696;2022-12-29T09:17:28;15.32;;;2.63;;
58208;SDS011;44006;52.028;4.696;2022-12-29T09:20:06;19.38;;;3.45;;
58208;SDS011;44006;52.028;4.696;2022-12-29T09:22:31;19.08;;;3.88;;
58208;SDS011;44006;52.028;4.696;2022-12-29T09:24:56;21.13;;;3.63;;
58208;SDS011;44006;52.028;4.696;2022-12-29T09:27:21;27.02;;;4.15;;
58208;SDS011;44006;52.028;4.696;2022-12-29T09:29:47;24.77;;;4.07;;
58208;SDS011;44006;52.028;4.696;2022-12-29T09:32:12;23.53;;;3.80;;
58208;SDS011;44006;52.028;4.696;2022-12-29T09:34:37;21.80;;;3.83;;
58208;SDS011;44006;52.028;4.696;2022-12-29T09:37:02;24.25;;;4.40;;
58208;SDS011;44006;52.028;4.696;2022-12-29T09:39:27;24.75;;;3.92;;
58208;SDS011;44006;52.028;4.696;2022-12-29T09:46:55;28.17;;;4.00;;
58208;SDS011;44006;52.028;4.696;2022-12-29T09:49:23;16.05;;;3.50;;
58208;SDS011;44006;52.028;4.696;2022-12-29T09:51:55;18.42;;;3.85;;
58208;SDS011;44006;52.028;4.696;2022-12-29T09:56:52;25.08;;;4.00;;
58208;SDS011;44006;52.028;4.696;2022-12-29T09:59:19;22.52;;;4.15;;
58208;SDS011;44006;52.028;4.696;2022-12-29T10:04:29;25.13;;;3.72;;
58208;SDS011;44006;52.028;4.696;2022-12-29T10:06:56;17.05;;;4.28;;
58208;SDS011;44006;52.028;4.696;2022-12-29T10:09:44;31.63;;;5.22;;
58208;SDS011;44006;52.028;4.696;2022-12-29T10:12:20;30.55;;;5.57;;
58208;SDS011;44006;52.028;4.696;2022-12-29T10:25:18;25.63;;;5.07;;
58208;SDS011;44006;52.028;4.696;2022-12-29T10:27:43;34.13;;;5.90;;
58208;SDS011;44006;52.028;4.696;2022-12-29T10:30:12;30.85;;;5.45;;
58208;SDS011;44006;52.028;4.696;2022-12-29T10:32:39;35.60;;;5.78;;
58208;SDS011;44006;52.028;4.696;2022-12-29T10:35:10;30.85;;;5.57;;
58208;SDS011;44006;52.028;4.696;2022-12-29T10:42:41;38.17;;;5.47;;
58208;SDS011;44006;52.028;4.696;2022-12-29T10:45:11;32.42;;;5.13;;
58208;SDS011;44006;52.028;4.696;2022-12-29T10:47:38;47.08;;;6.13;;
58208;SDS011;44006;52.028;4.696;2022-12-29T10:50:06;34.58;;;5.05;;
58208;SDS011;44006;52.028;4.696;2022-12-29T10:52:32;34.05;;;5.20;;
58208;SDS011;44006;52.028;4.696;2022-12-29T10:54:59;39.00;;;5.20;;
58208;SDS011;44006;52.028;4.696;2022-12-29T10:59:50;33.85;;;5.25;;
58208;SDS011;44006;52.028;4.696;2022-12-29T11:05:19;45.45;;;5.05;;
58208;SDS011;44006;52.028;4.696;2022-12-29T11:07:48;39.25;;;5.03;;
58208;SDS011;44006;52.028;4.696;2022-12-29T11:10:19;34.80;;;4.95;;
58208;SDS011;44006;52.028;4.696;2022-12-29T11:13:46;42.17;;;5.63;;
58208;SDS011;44006;52.028;4.696;2022-12-29T11:15:41;43.05;;;5.35;;
58208;SDS011;44006;52.028;4.696;2022-12-29T11:18:16;40.08;;;5.15;;
58208;SDS011;44006;52.028;4.696;2022-12-29T11:20:42;35.42;;;5.20;;
58208;SDS011;44006;52.028;4.696;2022-12-29T11:28:30;43.30;;;5.38;;
58208;SDS011;44006;52.028;4.696;2022-12-29T11:31:00;44.33;;;6.30;;
58208;SDS011;44006;52.028;4.696;2022-12-29T11:33:27;39.75;;;5.53;;
58208;SDS011;44006;52.028;4.696;2022-12-29T11:35:57;34.70;;;5.72;;
58208;SDS011;44006;52.028;4.696;2022-12-29T11:38:24;38.60;;;5.53;;
58208;SDS011;44006;52.028;4.696;2022-12-29T11:40:50;45.53;;;5.95;;
58208;SDS011;44006;52.028;4.696;2022-12-29T11:45:54;40.25;;;4.70;;
58208;SDS011;44006;52.028;4.696;2022-12-29T11:48:21;35.00;;;5.03;;
58208;SDS011;44006;52.028;4.696;2022-12-29T11:50:50;37.08;;;5.05;;
58208;SDS011;44006;52.028;4.696;2022-12-29T11:55:50;34.40;;;4.97;;
58208;SDS011;44006;52.028;4.696;2022-12-29T11:58:15;32.30;;;4.45;;
58208;SDS011;44006;52.028;4.696;2022-12-29T12:00:41;30.58;;;4.80;;
58208;SDS011;44006;52.028;4.696;2022-12-29T12:03:19;39.03;;;5.45;;
58208;SDS011;44006;52.028;4.696;2022-12-29T12:05:57;32.15;;;4.93;;
58208;SDS011;44006;52.028;4.696;2022-12-29T12:11:11;36.22;;;5.25;;
58208;SDS011;44006;52.028;4.696;2022-12-29T12:13:47;32.20;;;4.60;;
58208;SDS011;44006;52.028;4.696;2022-12-29T12:16:20;28.80;;;4.28;;
58208;SDS011;44006;52.028;4.696;2022-12-29T12:18:52;40.97;;;4.85;;
58208;SDS011;44006;52.028;4.696;2022-12-29T12:21:38;26.75;;;4.30;;
58208;SDS011;44006;52.028;4.696;2022-12-29T12:24:30;30.20;;;4.57;;
58208;SDS011;44006;52.028;4.696;2022-12-29T12:26:58;27.63;;;4.85;;
58208;SDS011;44006;52.028;4.696;2022-12-29T12:29:27;30.85;;;4.88;;
58208;SDS011;44006;52.028;4.696;2022-12-29T12:31:57;19.42;;;3.33;;
58208;SDS011;44006;52.028;4.696;2022-12-29T12:34:26;27.60;;;3.53;;
58208;SDS011;44006;52.028;4.696;2022-12-29T12:37:27;17.98;;;3.25;;
58208;SDS011;44006;52.028;4.696;2022-12-29T12:50:15;16.50;;;2.70;;
58208;SDS011;44006;52.028;4.696;2022-12-29T12:55:30;20.80;;;2.83;;
58208;SDS011;44006;52.028;4.696;2022-12-29T13:00:25;20.88;;;3.97;;
58208;SDS011;44006;52.028;4.696;2022-12-29T13:03:05;19.98;;;3.78;;
58208;SDS011;44006;52.028;4.696;2022-12-29T13:24:28;21.55;;;3.72;;
58208;SDS011;44006;52.028;4.696;2022-12-29T13:26:58;25.70;;;3.58;;
58208;SDS011;44006;52.028;4.696;2022-12-29T13:29:44;25.60;;;3.72;;
58208;SDS011;44006;52.028;4.696;2022-12-29T13:32:23;30.38;;;4.25;;
58208;SDS011;44006;52.028;4.696;2022-12-29T13:37:27;23.73;;;4.07;;
58208;SDS011;44006;52.028;4.696;2022-12-29T13:39:58;26.55;;;5.10;;
58208;SDS011;44006;52.028;4.696;2022-12-29T13:42:24;27.73;;;4.35;;
58208;SDS011;44006;52.028;4.696;2022-12-29T13:44:57;24.58;;;4.53;;
58208;SDS011;44006;52.028;4.696;2022-12-29T13:47:31;25.38;;;4.20;;
58208;SDS011;44006;52.028;4.696;2022-12-29T13:49:58;18.02;;;4.45;;
58208;SDS011;44006;52.028;4.696;2022-12-29T13:52:27;12.32;;;3.50;;
58208;SDS011;44006;52.028;4.696;2022-12-29T13:55:01;14.77;;;4.45;;
58208;SDS011;44006;52.028;4.696;2022-12-29T13:57:49;15.32;;;3.17;;
58208;SDS011;44006;52.028;4.696;2022-12-29T14:00:18;12.77;;;2.50;;
58208;SDS011;44006;52.028;4.696;2022-12-29T14:07:47;13.48;;;2.83;;
58208;SDS011;44006;52.028;4.696;2022-12-29T14:10:47;12.60;;;2.42;;
58208;SDS011;44006;52.028;4.696;2022-12-29T14:13:16;14.38;;;2.65;;
58208;SDS011;44006;52.028;4.696;2022-12-29T14:15:43;11.95;;;2.63;;
58208;SDS011;44006;52.028;4.696;2022-12-29T14:20:39;16.23;;;2.95;;
58208;SDS011;44006;52.028;4.696;2022-12-29T14:28:28;17.95;;;4.25;;
58208;SDS011;44006;52.028;4.696;2022-12-29T14:30:58;16.13;;;4.00;;
58208;SDS011;44006;52.028;4.696;2022-12-29T14:33:26;18.17;;;3.78;;
58208;SDS011;44006;52.028;4.696;2022-12-29T14:35:52;20.92;;;3.97;;
58208;SDS011;44006;52.028;4.696;2022-12-29T14:38:20;18.77;;;3.47;;
58208;SDS011;44006;52.028;4.696;2022-12-29T14:40:46;22.90;;;3.70;;
58208;SDS011;44006;52.028;4.696;2022-12-29T14:43:13;17.33;;;3.58;;
58208;SDS011;44006;52.028;4.696;2022-12-29T14:45:40;16.73;;;3.15;;
58208;SDS011;44006;52.028;4.696;2022-12-29T14:51:43;20.17;;;3.70;;
58208;SDS011;44006;52.028;4.696;2022-12-29T14:54:29;18.60;;;2.95;;
58208;SDS011;44006;52.028;4.696;2022-12-29T14:56:47;17.63;;;3.03;;
58208;SDS011;44006;52.028;4.696;2022-12-29T14:59:12;14.35;;;3.10;;
58208;SDS011;44006;52.028;4.696;2022-12-29T15:01:40;15.82;;;2.85;;
58208;SDS011;44006;52.028;4.696;2022-12-29T15:07:02;17.23;;;2.80;;
58208;SDS011;44006;52.028;4.696;2022-12-29T15:09:35;17.40;;;3.22;;
58208;SDS011;44006;52.028;4.696;2022-12-29T15:12:27;19.48;;;3.60;;
58208;SDS011;44006;52.028;4.696;2022-12-29T15:19:49;20.58;;;4.13;;
58208;SDS011;44006;52.028;4.696;2022-12-29T15:22:14;18.00;;;3.92;;
58208;SDS011;44006;52.028;4.696;2022-12-29T15:24:42;17.58;;;3.53;;
58208;SDS011;44006;52.028;4.696;2022-12-29T15:27:10;15.40;;;3.50;;
58208;SDS011;44006;52.028;4.696;2022-12-29T15:29:38;16.35;;;3.00;;
58208;SDS011;44006;52.028;4.696;2022-12-29T15:32:21;21.65;;;3.65;;
58208;SDS011;44006;52.028;4.696;2022-12-29T15:34:47;24.20;;;3.60;;
58208;SDS011;44006;52.028;4.696;2022-12-29T15:37:26;17.23;;;3.10;;
58208;SDS011;44006;52.028;4.696;2022-12-29T15:39:52;19.90;;;3.17;;
58208;SDS011;44006;52.028;4.696;2022-12-29T15:45:03;21.10;;;3.58;;
58208;SDS011;44006;52.028;4.696;2022-12-29T15:47:29;18.67;;;2.95;;
58208;SDS011;44006;52.028;4.696;2022-12-29T15:49:59;19.65;;;3.42;;
58208;SDS011;44006;52.028;4.696;2022-12-29T15:52:26;18.93;;;4.43;;
58208;SDS011;44006;52.028;4.696;2022-12-29T15:54:52;17.15;;;4.10;;
58208;SDS011;44006;52.028;4.696;2022-12-29T15:59:49;13.18;;;3.38;;
58208;SDS011;44006;52.028;4.696;2022-12-29T16:02:14;15.30;;;4.03;;
58208;SDS011;44006;52.028;4.696;2022-12-29T16:04:40;18.38;;;3.25;;
58208;SDS011;44006;52.028;4.696;2022-12-29T16:07:20;22.40;;;3.53;;
58208;SDS011;44006;52.028;4.696;2022-12-29T16:09:46;23.73;;;4.35;;
58208;SDS011;44006;52.028;4.696;2022-12-29T16:12:16;16.30;;;3.10;;
58208;SDS011;44006;52.028;4.696;2022-12-29T16:14:43;17.38;;;4.60;;
58208;SDS011;44006;52.028;4.696;2022-12-29T16:17:14;14.07;;;3.40;;
58208;SDS011;44006;52.028;4.696;2022-12-29T16:19:41;19.45;;;3.78;;
58208;SDS011;44006;52.028;4.696;2022-12-29T16:22:12;17.80;;;3.45;;
58208;SDS011;44006;52.028;4.696;2022-12-29T16:24:40;15.52;;;2.67;;
58208;SDS011;44006;52.028;4.696;2022-12-29T16:27:09;9.77;;;2.72;;
58208;SDS011;44006;52.028;4.696;2022-12-29T16:29:35;16.05;;;2.90;;
58208;SDS011;44006;52.028;4.696;2022-12-29T16:32:00;12.60;;;4.28;;
58208;SDS011;44006;52.028;4.696;2022-12-29T16:36:54;21.13;;;5.33;;
58208;SDS011;44006;52.028;4.696;2022-12-29T16:39:21;14.75;;;3.75;;
58208;SDS011;44006;52.028;4.696;2022-12-29T16:41:50;17.50;;;4.27;;
58208;SDS011;44006;52.028;4.696;2022-12-29T16:44:16;17.88;;;3.30;;
58208;SDS011;44006;52.028;4.696;2022-12-29T16:49:23;15.95;;;2.92;;
58208;SDS011;44006;52.028;4.696;2022-12-29T16:51:48;16.08;;;2.90;;
58208;SDS011;44006;52.028;4.696;2022-12-29T16:54:18;19.80;;;2.95;;
58208;SDS011;44006;52.028;4.696;2022-12-29T16:56:45;20.83;;;2.97;;
58208;SDS011;44006;52.028;4.696;2022-12-29T16:59:19;20.45;;;3.50;;
58208;SDS011;44006;52.028;4.696;2022-12-29T17:01:46;20.50;;;3.58;;
58208;SDS011;44006;52.028;4.696;2022-12-29T17:04:12;17.67;;;2.72;;
58208;SDS011;44006;52.028;4.696;2022-12-29T17:06:38;15.07;;;2.72;;
58208;SDS011;44006;52.028;4.696;2022-12-29T17:09:15;22.88;;;3.03;;
58208;SDS011;44006;52.028;4.696;2022-12-29T17:11:41;21.67;;;3.40;;
58208;SDS011;44006;52.028;4.696;2022-12-29T17:14:35;22.98;;;3.13;;